Time;durP1;ratioP1;P1;durP2;ratioP2;P2;SDS_P1;SDS_P2;PMS_P1;PMS_P2;Temp;Humidity;BMP_temperature;BMP_pressure;BME280_temperature;BME280_humidity;BME280_pressure;Samples;Min_cycle;Max_cycle;Signal;HPM_P1;HPM_P2
2021/09/04 00:01:35;;;;;;;3.12;1.90;;;10.70;99.90;;;;;;4351341;32;20081;-68
2021/09/04 00:04:01;;;;;;;2.87;1.73;;;10.70;99.90;;;;;;4350667;32;20085;-66
2021/09/04 00:06:27;;;;;;;2.58;1.75;;;10.70;99.90;;;;;;4377195;32;20088;-68
2021/09/04 00:08:53;;;;;;;3.10;1.85;;;10.80;99.90;;;;;;4362776;32;20098;-66
2021/09/04 00:11:19;;;;;;;5.05;2.00;;;10.70;99.90;;;;;;4363161;32;20085;-68
2021/09/04 00:13:46;;;;;;;4.40;2.40;;;10.70;99.90;;;;;;4362923;32;20153;-67
2021/09/04 00:16:12;;;;;;;3.12;2.08;;;10.60;99.90;;;;;;4363235;32;20093;-67
2021/09/04 00:18:38;;;;;;;4.07;2.30;;;10.50;99.90;;;;;;4338318;32;20055;-67
2021/09/04 00:21:04;;;;;;;4.87;2.50;;;10.50;99.90;;;;;;4363219;32;20085;-67
2021/09/04 00:23:31;;;;;;;3.35;2.35;;;10.40;99.90;;;;;;4380470;32;20092;-66
2021/09/04 00:25:57;;;;;;;4.43;2.22;;;10.40;99.90;;;;;;4378880;32;20152;-68
2021/09/04 00:28:23;;;;;;;3.30;2.20;;;10.40;99.90;;;;;;4362608;32;20545;-66
2021/09/04 00:30:49;;;;;;;3.00;2.30;;;10.40;99.90;;;;;;4362867;32;20158;-67
2021/09/04 00:33:16;;;;;;;4.45;2.80;;;10.40;99.90;;;;;;4363006;32;20079;-67
2021/09/04 00:35:42;;;;;;;5.00;2.60;;;10.50;99.90;;;;;;4376625;32;20077;-67
2021/09/04 00:38:08;;;;;;;3.80;2.65;;;10.50;99.90;;;;;;4362982;32;20159;-68
2021/09/04 00:40:34;;;;;;;3.58;2.28;;;10.40;99.90;;;;;;4376321;32;20156;-68
2021/09/04 00:43:00;;;;;;;3.47;2.33;;;10.30;99.90;;;;;;4350387;32;20089;-67
2021/09/04 00:45:27;;;;;;;4.07;2.45;;;10.30;99.90;;;;;;4350318;32;20159;-68
2021/09/04 00:47:59;;;;;;;3.10;2.20;;;10.30;99.90;;;;;;4376330;32;20080;-67
2021/09/04 00:50:27;;;;;;;3.22;2.17;;;10.30;99.90;;;;;;4362722;32;20444;-67
2021/09/04 00:52:53;;;;;;;3.87;2.45;;;10.30;99.90;;;;;;4338515;32;20605;-66
2021/09/04 00:55:19;;;;;;;2.25;1.83;;;10.40;99.90;;;;;;4362464;32;20088;-67
2021/09/04 00:57:46;;;;;;;3.37;2.30;;;10.50;99.90;;;;;;4338767;32;20066;-67
2021/09/04 01:00:13;;;;;;;4.05;2.30;;;10.50;99.90;;;;;;4338581;32;20086;-66
2021/09/04 01:02:39;;;;;;;4.80;2.72;;;10.60;99.90;;;;;;4363195;32;20104;-67
2021/09/04 01:05:07;;;;;;;3.70;2.08;;;10.60;99.90;;;;;;4352393;32;20070;-67
2021/09/04 01:07:33;;;;;;;3.40;2.15;;;10.50;99.90;;;;;;4363125;32;20112;-67
2021/09/04 01:10:01;;;;;;;4.43;2.42;;;10.60;99.90;;;;;;4362717;32;20089;-67
2021/09/04 01:12:27;;;;;;;3.00;2.08;;;10.60;99.90;;;;;;4351251;32;20157;-67
2021/09/04 01:14:53;;;;;;;3.60;2.10;;;10.60;99.90;;;;;;4338940;32;20176;-67
2021/09/04 01:17:20;;;;;;;4.57;2.10;;;10.60;99.90;;;;;;4363093;32;20142;-67
2021/09/04 01:19:46;;;;;;;2.90;2.30;;;10.50;99.90;;;;;;4351315;32;20178;-68
2021/09/04 01:22:12;;;;;;;2.85;1.90;;;10.40;99.90;;;;;;4363405;32;20540;-66
2021/09/04 01:24:38;;;;;;;3.70;2.22;;;10.30;99.90;;;;;;4352399;32;20097;-67
2021/09/04 01:27:05;;;;;;;3.35;2.20;;;10.20;99.90;;;;;;4339249;32;20098;-67
2021/09/04 01:29:31;;;;;;;2.65;2.12;;;10.20;99.90;;;;;;4351724;32;20093;-67
2021/09/04 01:31:57;;;;;;;3.87;2.15;;;10.20;99.90;;;;;;4354138;32;20066;-67
2021/09/04 01:34:23;;;;;;;3.55;2.30;;;10.30;99.90;;;;;;4349646;32;20109;-67
2021/09/04 01:36:49;;;;;;;2.67;2.00;;;10.20;99.90;;;;;;4381702;32;20094;-67
2021/09/04 01:39:16;;;;;;;2.87;2.00;;;10.30;99.90;;;;;;4343513;32;20093;-67
2021/09/04 01:41:42;;;;;;;2.92;2.10;;;10.30;99.90;;;;;;4354088;32;20089;-66
2021/09/04 01:44:08;;;;;;;3.28;2.08;;;10.30;99.90;;;;;;4353225;32;20066;-67
2021/09/04 01:46:34;;;;;;;2.90;1.95;;;10.30;99.90;;;;;;4378728;32;20070;-67
2021/09/04 01:49:01;;;;;;;2.83;2.22;;;10.30;99.90;;;;;;4365318;32;20488;-67
2021/09/04 01:51:27;;;;;;;3.05;2.08;;;10.20;99.90;;;;;;4340188;32;20088;-67
2021/09/04 01:53:54;;;;;;;2.10;1.90;;;10.20;99.90;;;;;;4340416;32;20078;-68
2021/09/04 01:56:20;;;;;;;2.08;1.87;;;10.50;99.90;;;;;;4366602;32;20175;-67
2021/09/04 01:58:49;;;;;;;3.87;1.90;;;10.60;99.90;;;;;;4367876;32;20078;-67
2021/09/04 02:01:15;;;;;;;3.12;1.98;;;10.80;99.90;;;;;;4355259;32;20078;-67
2021/09/04 02:03:41;;;;;;;2.87;2.08;;;10.80;99.90;;;;;;4357121;32;20155;-69
2021/09/04 02:06:07;;;;;;;3.45;2.00;;;11.10;99.90;;;;;;4354535;32;20236;-68
2021/09/04 02:08:33;;;;;;;2.30;1.90;;;11.10;99.90;;;;;;4365069;32;20094;-67
2021/09/04 02:11:00;;;;;;;3.70;2.00;;;11.20;99.90;;;;;;4340839;32;20074;-68
2021/09/04 02:13:27;;;;;;;3.37;2.25;;;11.10;99.90;;;;;;4341928;32;20535;-67
2021/09/04 02:15:54;;;;;;;3.80;1.87;;;11.20;99.90;;;;;;4365344;32;20084;-67
2021/09/04 02:18:20;;;;;;;2.28;1.80;;;11.10;99.90;;;;;;4352849;32;20098;-67
2021/09/04 02:20:48;;;;;;;3.95;2.10;;;11.20;99.90;;;;;;4378658;32;20094;-65
2021/09/04 02:23:15;;;;;;;2.03;1.70;;;11.20;99.90;;;;;;4368035;32;20089;-66
2021/09/04 02:25:41;;;;;;;2.78;1.95;;;11.20;99.90;;;;;;4355080;32;20166;-67
2021/09/04 02:28:08;;;;;;;2.40;2.12;;;11.10;99.90;;;;;;4353825;32;20077;-68
2021/09/04 02:30:34;;;;;;;3.03;2.05;;;11.10;99.90;;;;;;4379156;32;20171;-68
2021/09/04 02:33:00;;;;;;;2.72;1.98;;;11.20;99.90;;;;;;4353349;32;20081;-67
2021/09/04 02:35:27;;;;;;;3.15;2.20;;;11.20;99.90;;;;;;4352321;32;20081;-67
2021/09/04 02:37:53;;;;;;;3.08;2.10;;;11.20;99.90;;;;;;4352203;32;20508;-67
2021/09/04 02:40:19;;;;;;;2.00;1.67;;;11.20;99.90;;;;;;4364982;32;20105;-67
2021/09/04 02:42:45;;;;;;;4.65;1.83;;;11.20;99.90;;;;;;4352284;32;20070;-68
2021/09/04 02:45:11;;;;;;;2.78;1.90;;;11.20;99.90;;;;;;4378693;32;20075;-68
2021/09/04 02:47:38;;;;;;;2.40;1.92;;;11.20;99.90;;;;;;4352506;32;20092;-66
2021/09/04 02:50:05;;;;;;;2.25;1.65;;;11.20;99.90;;;;;;4352586;32;20160;-66
2021/09/04 02:52:31;;;;;;;3.97;1.95;;;11.20;99.90;;;;;;4340555;32;20155;-67
2021/09/04 02:54:57;;;;;;;2.35;2.00;;;11.20;99.90;;;;;;4353385;32;20432;-67
2021/09/04 02:57:23;;;;;;;5.43;1.87;;;11.30;99.90;;;;;;4355797;32;20163;-67
2021/09/04 02:59:49;;;;;;;2.62;1.90;;;11.30;99.90;;;;;;4379544;32;20074;-67
2021/09/04 03:02:15;;;;;;;2.97;2.08;;;11.30;99.90;;;;;;4352339;32;20144;-65
2021/09/04 03:04:41;;;;;;;2.53;2.12;;;11.30;99.90;;;;;;4352998;32;20515;-66
2021/09/04 03:07:08;;;;;;;2.92;2.08;;;11.40;99.90;;;;;;4339739;32;20535;-66
2021/09/04 03:09:34;;;;;;;2.72;2.00;;;11.50;99.90;;;;;;4352162;32;20101;-67
2021/09/04 03:12:02;;;;;;;6.90;2.58;;;11.60;99.90;;;;;;4364159;32;20079;-67
2021/09/04 03:14:29;;;;;;;3.33;1.90;;;11.70;99.90;;;;;;4364259;32;20070;-67
2021/09/04 03:16:55;;;;;;;1.95;1.75;;;11.80;99.90;;;;;;4339178;32;20597;-67
2021/09/04 03:19:21;;;;;;;2.42;1.73;;;11.80;99.90;;;;;;4352716;32;20094;-66
2021/09/04 03:21:48;;;;;;;2.00;1.70;;;11.80;99.90;;;;;;4342656;32;20097;-66
2021/09/04 03:24:14;;;;;;;2.72;1.67;;;11.90;99.90;;;;;;4341599;32;20101;-67
2021/09/04 03:26:40;;;;;;;3.22;1.65;;;11.90;99.90;;;;;;4352366;32;20507;-67
2021/09/04 03:29:06;;;;;;;2.03;1.52;;;11.90;99.90;;;;;;4351836;32;20448;-67
2021/09/04 03:31:33;;;;;;;2.33;1.67;;;11.80;99.90;;;;;;4352289;32;20520;-66
2021/09/04 03:33:59;;;;;;;2.60;1.70;;;11.80;99.90;;;;;;4355332;32;20605;-68
2021/09/04 03:36:25;;;;;;;4.15;1.70;;;11.70;99.90;;;;;;4364024;32;20073;-67
2021/09/04 03:38:51;;;;;;;2.95;2.00;;;11.80;99.90;;;;;;4352660;32;20086;-68
2021/09/04 03:41:17;;;;;;;2.67;1.70;;;11.90;99.90;;;;;;4365131;32;20096;-67
2021/09/04 03:43:44;;;;;;;2.75;1.75;;;11.90;99.90;;;;;;4364098;32;20079;-67
2021/09/04 03:46:10;;;;;;;2.65;1.90;;;11.90;99.90;;;;;;4342172;32;20088;-67
2021/09/04 03:48:36;;;;;;;1.70;1.60;;;11.90;99.90;;;;;;4363096;32;20181;-66
2021/09/04 03:51:03;;;;;;;1.95;1.75;;;11.90;99.90;;;;;;4363838;32;20070;-68
2021/09/04 03:53:29;;;;;;;2.08;1.60;;;11.90;99.90;;;;;;4351142;32;20082;-67
2021/09/04 03:55:55;;;;;;;2.35;1.80;;;12.00;99.90;;;;;;4351744;32;20499;-67
2021/09/04 03:58:22;;;;;;;2.15;1.80;;;12.00;99.90;;;;;;4363656;32;20240;-66
2021/09/04 04:00:48;;;;;;;3.17;1.95;;;12.10;99.90;;;;;;4363369;32;20074;-67
2021/09/04 04:03:14;;;;;;;1.90;1.40;;;12.10;99.90;;;;;;4363676;32;20495;-66
2021/09/04 04:05:40;;;;;;;3.42;1.75;;;12.10;99.90;;;;;;4351156;32;20089;-67
2021/09/04 04:08:07;;;;;;;2.78;1.60;;;12.20;99.90;;;;;;4363122;32;20077;-67
2021/09/04 04:10:33;;;;;;;2.10;1.55;;;12.30;99.90;;;;;;4351028;32;20101;-66
2021/09/04 04:12:59;;;;;;;1.90;1.50;;;12.40;99.90;;;;;;4363680;32;20136;-67
2021/09/04 04:15:25;;;;;;;2.25;1.52;;;12.50;99.90;;;;;;4338303;32;20089;-67
2021/09/04 04:17:51;;;;;;;1.30;1.20;;;12.60;99.90;;;;;;4363022;32;20094;-67
2021/09/04 04:20:18;;;;;;;1.73;1.50;;;12.60;99.90;;;;;;4350779;32;20097;-66
2021/09/04 04:22:44;;;;;;;4.20;1.85;;;12.70;99.90;;;;;;4363045;32;20079;-67
2021/09/04 04:25:11;;;;;;;2.08;1.70;;;12.70;99.90;;;;;;4351100;32;20085;-67
2021/09/04 04:27:38;;;;;;;2.47;1.95;;;12.80;99.90;;;;;;4338640;32;20078;-68
2021/09/04 04:30:06;;;;;;;2.42;1.67;;;12.80;99.90;;;;;;4352995;32;20105;-67
2021/09/04 04:32:32;;;;;;;2.47;1.35;;;12.90;99.90;;;;;;4351166;32;20512;-67
2021/09/04 04:34:59;;;;;;;2.35;1.65;;;12.70;99.90;;;;;;4363461;32;20066;-67
2021/09/04 04:37:26;;;;;;;2.28;1.62;;;12.60;99.90;;;;;;4363322;32;20100;-67
2021/09/04 04:39:52;;;;;;;2.67;1.30;;;12.70;99.90;;;;;;4363162;32;20067;-67
2021/09/04 04:42:18;;;;;;;5.72;1.70;;;12.70;99.90;;;;;;4350434;32;20511;-67
2021/09/04 04:44:44;;;;;;;6.80;1.50;;;12.70;99.90;;;;;;4350728;32;20193;-67
2021/09/04 04:47:10;;;;;;;4.05;1.60;;;12.80;99.90;;;;;;4363269;32;20098;-66
2021/09/04 04:49:36;;;;;;;2.62;1.75;;;13.00;99.90;;;;;;4363042;32;20084;-67
2021/09/04 04:52:03;;;;;;;2.28;1.67;;;13.00;99.90;;;;;;4337989;32;20542;-69
2021/09/04 04:54:29;;;;;;;2.85;1.60;;;13.80;99.90;;;;;;4362853;32;20525;-66
2021/09/04 04:56:55;;;;;;;4.53;2.05;;;13.80;99.90;;;;;;4362458;32;20536;-67
2021/09/04 04:59:21;;;;;;;3.95;1.60;;;13.10;99.90;;;;;;4326143;32;20173;-67
2021/09/04 05:01:47;;;;;;;3.05;2.00;;;13.10;99.90;;;;;;4376329;32;20500;-67
2021/09/04 05:04:14;;;;;;;4.72;1.70;;;12.80;99.90;;;;;;4364299;32;20687;-66
2021/09/04 05:06:40;;;;;;;4.75;2.30;;;12.80;99.90;;;;;;4363206;32;20085;-67
2021/09/04 05:09:06;;;;;;;3.80;2.03;;;12.80;99.90;;;;;;4376440;32;20157;-67
2021/09/04 05:11:32;;;;;;;4.80;2.58;;;12.90;99.90;;;;;;4363277;32;20085;-67
2021/09/04 05:13:58;;;;;;;3.25;2.00;;;12.80;99.90;;;;;;4362983;32;20181;-66
2021/09/04 05:16:24;;;;;;;3.97;2.35;;;13.80;99.90;;;;;;4350219;32;20097;-66
2021/09/04 05:18:51;;;;;;;3.28;2.05;;;14.50;99.90;;;;;;4362693;32;20158;-68
2021/09/04 05:21:17;;;;;;;3.80;2.05;;;14.10;99.90;;;;;;4350181;32;20468;-68
2021/09/04 05:23:43;;;;;;;2.40;2.00;;;15.00;99.90;;;;;;4376419;32;20086;-67
2021/09/04 05:26:10;;;;;;;2.83;1.98;;;14.40;99.90;;;;;;4350368;32;20070;-68
2021/09/04 05:28:37;;;;;;;2.75;2.03;;;14.80;99.90;;;;;;4375086;32;20078;-67
2021/09/04 05:31:04;;;;;;;3.42;2.37;;;14.80;99.90;;;;;;4363653;32;20683;-67
2021/09/04 05:33:30;;;;;;;3.25;2.10;;;15.00;99.90;;;;;;4365888;32;20091;-68
2021/09/04 05:35:57;;;;;;;2.78;1.85;;;15.00;99.90;;;;;;4353006;32;20157;-68
2021/09/04 05:38:23;;;;;;;3.25;1.85;;;15.40;99.90;;;;;;4365507;32;20078;-67
2021/09/04 05:40:49;;;;;;;2.03;1.42;;;14.10;99.90;;;;;;4366906;32;20084;-68
2021/09/04 05:43:15;;;;;;;3.45;1.60;;;13.60;99.90;;;;;;4353990;32;20231;-68
2021/09/04 05:45:41;;;;;;;3.00;2.12;;;13.50;99.90;;;;;;4341705;32;20133;-67
2021/09/04 05:48:08;;;;;;;4.22;2.00;;;13.00;99.90;;;;;;4365095;32;20183;-67
2021/09/04 05:50:34;;;;;;;3.28;1.92;;;13.10;99.90;;;;;;4365246;32;20082;-67
2021/09/04 05:53:00;;;;;;;2.65;1.73;;;13.00;99.90;;;;;;4353133;32;20568;-67
2021/09/04 05:55:26;;;;;;;3.72;2.40;;;12.90;99.90;;;;;;4352856;32;20071;-67
2021/09/04 05:57:52;;;;;;;5.78;2.20;;;12.90;99.90;;;;;;4328393;32;20097;-67
2021/09/04 06:00:19;;;;;;;3.55;2.30;;;12.90;99.90;;;;;;4365152;32;20162;-67
2021/09/04 06:02:45;;;;;;;4.97;2.42;;;12.80;99.90;;;;;;4353450;32;20081;-65
2021/09/04 06:05:11;;;;;;;2.87;1.95;;;12.80;99.90;;;;;;4340831;32;20081;-67
2021/09/04 06:07:37;;;;;;;3.75;2.30;;;12.80;99.90;;;;;;4352949;32;20492;-66
2021/09/04 06:10:05;;;;;;;3.58;1.90;;;12.70;99.90;;;;;;4352098;32;20086;-66
2021/09/04 06:12:31;;;;;;;3.40;2.08;;;12.60;99.90;;;;;;4365241;32;20158;-66
2021/09/04 06:14:57;;;;;;;4.80;2.33;;;12.70;99.90;;;;;;4365475;32;20073;-68
2021/09/04 06:17:23;;;;;;;2.97;2.00;;;12.70;99.90;;;;;;4353395;32;20497;-66
2021/09/04 06:19:49;;;;;;;2.97;2.35;;;12.70;99.90;;;;;;4341217;32;20528;-67
2021/09/04 06:22:16;;;;;;;2.22;1.55;;;12.80;99.90;;;;;;4378672;32;20087;-68
2021/09/04 06:24:42;;;;;;;4.10;1.90;;;12.90;99.90;;;;;;4364921;32;20160;-66
2021/09/04 06:27:08;;;;;;;2.95;1.95;;;13.00;99.90;;;;;;4340633;32;20089;-66
2021/09/04 06:29:34;;;;;;;3.35;1.90;;;13.00;99.90;;;;;;4364836;32;20106;-65
2021/09/04 06:32:01;;;;;;;3.28;2.22;;;13.20;99.90;;;;;;4352416;32;20082;-66
2021/09/04 06:34:27;;;;;;;3.33;2.12;;;13.00;99.90;;;;;;4352814;32;20089;-66
2021/09/04 06:36:53;;;;;;;4.10;2.85;;;12.90;99.90;;;;;;4364530;32;20259;-67
2021/09/04 06:39:19;;;;;;;4.75;2.30;;;13.30;99.90;;;;;;4378687;32;20076;-67
2021/09/04 06:41:45;;;;;;;2.92;2.08;;;13.50;99.90;;;;;;4339723;32;20105;-66
2021/09/04 06:44:12;;;;;;;3.80;2.12;;;13.50;99.90;;;;;;4352337;32;20161;-66
2021/09/04 06:46:38;;;;;;;4.50;2.20;;;13.20;99.90;;;;;;4353622;32;20090;-68
2021/09/04 06:49:04;;;;;;;5.37;2.30;;;13.10;99.90;;;;;;4352314;32;20576;-67
2021/09/04 06:51:30;;;;;;;5.37;2.30;;;13.00;99.90;;;;;;4364935;32;20072;-66
2021/09/04 06:53:56;;;;;;;8.70;3.70;;;13.10;99.90;;;;;;4364048;32;20467;-66
2021/09/04 06:56:23;;;;;;;4.50;2.10;;;12.90;99.90;;;;;;4352341;32;20153;-66
2021/09/04 06:58:49;;;;;;;3.12;2.00;;;12.60;99.90;;;;;;4351807;32;20094;-66
2021/09/04 07:01:15;;;;;;;3.15;2.17;;;12.70;99.90;;;;;;4340608;32;20070;-66
2021/09/04 07:03:41;;;;;;;5.28;2.10;;;12.80;99.90;;;;;;4366025;32;20512;-67
2021/09/04 07:06:08;;;;;;;3.37;2.08;;;12.80;99.90;;;;;;4357038;32;20069;-67
2021/09/04 07:08:34;;;;;;;2.85;2.05;;;12.90;99.90;;;;;;4345070;32;20074;-66
2021/09/04 07:11:00;;;;;;;3.35;2.03;;;12.80;99.90;;;;;;4343597;32;20531;-66
2021/09/04 07:13:26;;;;;;;2.87;2.00;;;12.90;99.90;;;;;;4366849;32;20094;-67
2021/09/04 07:15:52;;;;;;;3.47;2.20;;;12.90;99.90;;;;;;4351867;32;20093;-67
2021/09/04 07:18:20;;;;;;;4.25;2.35;;;12.90;99.90;;;;;;4364429;32;20068;-67
2021/09/04 07:20:47;;;;;;;4.35;2.70;;;12.90;99.90;;;;;;4365738;32;20093;-67
2021/09/04 07:23:13;;;;;;;4.12;2.05;;;13.10;99.90;;;;;;4352014;32;20165;-67
2021/09/04 07:25:40;;;;;;;4.35;2.08;;;13.10;99.90;;;;;;4339747;32;20081;-66
2021/09/04 07:28:06;;;;;;;4.90;2.30;;;13.30;99.90;;;;;;4339152;32;20528;-66
2021/09/04 07:30:34;;;;;;;2.72;1.98;;;13.20;99.90;;;;;;4339916;32;20525;-65
2021/09/04 07:33:00;;;;;;;2.85;2.00;;;13.40;99.90;;;;;;4351724;32;20089;-67
2021/09/04 07:35:27;;;;;;;3.35;2.00;;;13.30;99.90;;;;;;4351375;32;20073;-66
2021/09/04 07:37:53;;;;;;;3.33;2.47;;;13.30;99.90;;;;;;4351414;32;20550;-66
2021/09/04 07:40:19;;;;;;;2.95;2.03;;;13.20;99.90;;;;;;4363888;32;20508;-67
2021/09/04 07:42:46;;;;;;;5.07;2.22;;;13.20;99.90;;;;;;4351349;32;20063;-67
2021/09/04 07:45:12;;;;;;;4.22;2.20;;;13.10;99.90;;;;;;4351107;32;20074;-66
2021/09/04 07:47:38;;;;;;;3.78;2.10;;;13.00;99.90;;;;;;4351423;32;20082;-66
2021/09/04 07:50:06;;;;;;;4.32;2.45;;;13.00;99.90;;;;;;4363297;32;20120;-67
2021/09/04 07:52:32;;;;;;;3.80;2.00;;;13.00;99.90;;;;;;4338782;32;20078;-66
2021/09/04 07:54:58;;;;;;;3.03;1.98;;;13.10;99.90;;;;;;4362947;32;20081;-67
2021/09/04 07:57:24;;;;;;;3.20;2.03;;;13.00;99.90;;;;;;4351053;32;20169;-67
2021/09/04 07:59:52;;;;;;;3.17;2.10;;;13.00;99.90;;;;;;4363619;32;20557;-67
2021/09/04 08:02:19;;;;;;;4.30;2.12;;;13.20;99.90;;;;;;4363496;32;20463;-66
2021/09/04 08:04:45;;;;;;;4.03;2.20;;;13.10;99.90;;;;;;4339171;32;20071;-67
2021/09/04 08:07:11;;;;;;;3.03;1.87;;;13.10;99.90;;;;;;4338693;32;20089;-66
2021/09/04 08:09:37;;;;;;;3.65;2.05;;;13.10;99.90;;;;;;4350637;32;20094;-67
2021/09/04 08:12:04;;;;;;;5.80;1.98;;;13.20;99.90;;;;;;4363664;32;20134;-66
2021/09/04 08:14:30;;;;;;;4.15;2.05;;;13.30;99.90;;;;;;4363170;32;20063;-67
2021/09/04 08:16:56;;;;;;;2.33;1.70;;;13.30;99.90;;;;;;4362768;32;20467;-67
2021/09/04 08:19:22;;;;;;;2.67;1.95;;;13.40;99.90;;;;;;4338960;32;20089;-67
2021/09/04 08:21:48;;;;;;;2.97;1.85;;;13.30;99.90;;;;;;4377015;32;20513;-67
2021/09/04 08:24:14;;;;;;;3.53;2.58;;;13.30;99.90;;;;;;4338831;32;20072;-68
2021/09/04 08:26:42;;;;;;;4.72;2.37;;;13.30;99.90;;;;;;4350882;32;20163;-66
2021/09/04 08:29:10;;;;;;;5.72;2.05;;;13.40;99.90;;;;;;4351160;32;20058;-66
2021/09/04 08:31:36;;;;;;;3.55;1.90;;;13.30;99.90;;;;;;4339459;32;20170;-66
2021/09/04 08:34:02;;;;;;;4.05;2.20;;;13.30;99.90;;;;;;4367359;32;20070;-66
2021/09/04 08:36:29;;;;;;;6.07;2.20;;;13.30;99.90;;;;;;4364514;32;20093;-67
2021/09/04 08:38:55;;;;;;;3.17;2.10;;;13.30;99.90;;;;;;4350768;32;20551;-68
2021/09/04 08:41:21;;;;;;;3.75;2.10;;;13.30;99.90;;;;;;4350682;32;20086;-68
2021/09/04 08:43:47;;;;;;;5.93;2.22;;;13.40;99.90;;;;;;4350600;32;20089;-67
2021/09/04 08:46:14;;;;;;;4.05;2.53;;;13.40;99.90;;;;;;4350190;32;20082;-66
2021/09/04 08:48:42;;;;;;;3.40;1.95;;;13.40;99.90;;;;;;4350976;32;20080;-68
2021/09/04 08:51:11;;;;;;;4.20;1.87;;;13.30;99.90;;;;;;4338463;32;20074;-66
2021/09/04 08:53:38;;;;;;;2.80;1.52;;;13.40;99.90;;;;;;4350930;32;20154;-65
2021/09/04 08:56:09;;;;;;;6.47;1.95;;;13.30;99.90;;;;;;4338268;32;20595;-66
2021/09/04 08:58:37;;;;;;;6.30;1.92;;;13.00;99.90;;;;;;4363439;32;20137;-67
2021/09/04 09:01:17;;;;;;;3.55;2.10;;;12.70;99.90;;;;;;4362675;32;20078;-67
2021/09/04 09:03:44;;;;;;;1.55;1.30;;;12.40;99.90;;;;;;4340100;32;20651;-66
2021/09/04 09:06:11;;;;;;;2.03;1.42;;;12.00;99.90;;;;;;4350325;32;20093;-66
2021/09/04 09:08:42;;;;;;;2.05;1.00;;;11.90;99.90;;;;;;4350216;32;20070;-65
2021/09/04 09:11:09;;;;;;;1.87;1.08;;;11.90;99.90;;;;;;4338440;32;20086;-66
2021/09/04 09:13:53;;;;;;;1.77;1.05;;;11.90;99.90;;;;;;4350751;32;20068;-67
2021/09/04 09:16:22;;;;;;;3.78;1.42;;;11.90;99.90;;;;;;4341247;32;20080;-67
2021/09/04 09:19:04;;;;;;;1.75;1.23;;;11.90;99.90;;;;;;4351153;32;20492;-66
2021/09/04 09:21:39;;;;;;;2.80;1.23;;;12.10;99.90;;;;;;4337790;32;20079;-66
2021/09/04 09:24:17;;;;;;;1.40;1.15;;;12.20;99.90;;;;;;4338040;32;20102;-65
2021/09/04 09:26:47;;;;;;;2.03;1.50;;;12.20;99.90;;;;;;4338318;32;20243;-66
2021/09/04 09:29:25;;;;;;;2.17;1.35;;;12.20;99.90;;;;;;4362532;32;20070;-66
2021/09/04 09:32:05;;;;;;;2.20;1.48;;;12.30;99.90;;;;;;4350990;32;20174;-66
2021/09/04 09:34:36;;;;;;;1.48;1.30;;;12.40;99.90;;;;;;4376711;32;20460;-67
2021/09/04 09:37:03;;;;;;;1.62;1.48;;;12.50;99.90;;;;;;4350318;32;20090;-66
2021/09/04 09:39:34;;;;;;;1.17;0.95;;;12.80;99.90;;;;;;4350337;32;20195;-67
2021/09/04 09:42:02;;;;;;;2.47;1.50;;;13.10;99.90;;;;;;4363028;32;20086;-67
2021/09/04 09:44:31;;;;;;;2.35;1.40;;;13.40;99.90;;;;;;4338263;32;20082;-67
2021/09/04 09:47:05;;;;;;;2.05;1.52;;;13.60;99.90;;;;;;4338615;32;20525;-65
2021/09/04 09:49:36;;;;;;;2.25;1.25;;;14.10;99.90;;;;;;4350712;32;20085;-66
2021/09/04 09:52:10;;;;;;;2.70;1.67;;;14.20;99.90;;;;;;4351252;32;20504;-66
2021/09/04 09:54:37;;;;;;;1.52;1.02;;;14.10;99.90;;;;;;4351126;32;20089;-66
2021/09/04 09:57:05;;;;;;;2.47;1.62;;;13.90;99.90;;;;;;4349915;32;20519;-66
2021/09/04 09:59:32;;;;;;;2.50;1.40;;;14.00;99.90;;;;;;4338590;32;20097;-66
2021/09/04 10:02:10;;;;;;;1.55;1.40;;;14.00;99.90;;;;;;4350656;32;20086;-65
2021/09/04 10:04:38;;;;;;;1.35;1.12;;;14.30;99.90;;;;;;4351252;32;20077;-67
2021/09/04 10:07:06;;;;;;;1.90;1.52;;;14.00;99.90;;;;;;4350582;32;20082;-67
2021/09/04 10:09:33;;;;;;;1.60;1.00;;;14.00;99.90;;;;;;4349881;32;20172;-66
2021/09/04 10:11:59;;;;;;;2.10;1.50;;;14.00;99.90;;;;;;4349858;32;20145;-67
2021/09/04 10:14:25;;;;;;;2.03;1.77;;;14.00;99.90;;;;;;4362911;32;20079;-68
2021/09/04 10:16:55;;;;;;;1.75;1.30;;;14.10;99.90;;;;;;4362914;32;20073;-68
2021/09/04 10:19:25;;;;;;;3.05;1.50;;;14.50;99.90;;;;;;4341203;32;20070;-68
2021/09/04 10:22:01;;;;;;;2.85;1.60;;;14.60;99.90;;;;;;4341123;32;20072;-66
2021/09/04 10:24:46;;;;;;;2.30;1.62;;;14.60;99.90;;;;;;4329566;32;20085;-68
2021/09/04 10:27:15;;;;;;;2.28;1.15;;;14.90;99.90;;;;;;4341124;32;20157;-68
2021/09/04 10:29:46;;;;;;;2.33;1.40;;;14.70;99.90;;;;;;4340481;32;20217;-67
2021/09/04 10:32:16;;;;;;;2.90;1.58;;;14.80;99.90;;;;;;4352041;32;20523;-67
2021/09/04 10:34:44;;;;;;;2.28;1.60;;;14.80;99.90;;;;;;4339667;32;20520;-66
2021/09/04 10:37:13;;;;;;;2.83;1.58;;;14.60;99.90;;;;;;4352984;32;20092;-67
2021/09/04 10:40:04;;;;;;;1.45;1.20;;;14.80;99.90;;;;;;4378785;32;20587;-67
2021/09/04 10:42:38;;;;;;;3.10;1.30;;;14.70;99.90;;;;;;4353575;32;20073;-67
2021/09/04 10:45:06;;;;;;;2.05;1.30;;;14.70;99.90;;;;;;4351998;32;20121;-67
2021/09/04 10:47:56;;;;;;;2.55;1.42;;;15.00;99.90;;;;;;4364916;32;20169;-66
2021/09/04 10:50:27;;;;;;;2.65;1.80;;;15.40;99.90;;;;;;4354656;32;20096;-67
2021/09/04 10:53:05;;;;;;;1.65;1.20;;;15.40;99.90;;;;;;4339992;32;20505;-66
2021/09/04 10:55:41;;;;;;;3.00;1.92;;;15.00;99.90;;;;;;4341162;32;20077;-68
2021/09/04 10:58:16;;;;;;;2.25;1.55;;;15.20;99.90;;;;;;4352269;32;20181;-67
2021/09/04 11:00:43;;;;;;;3.65;1.77;;;15.00;99.90;;;;;;4353092;32;20512;-68
2021/09/04 11:03:17;;;;;;;2.87;1.45;;;15.70;95.30;;;;;;4352577;32;20098;-67
2021/09/04 11:06:05;;;;;;;3.10;1.58;;;15.70;95.40;;;;;;4342245;32;20131;-67
2021/09/04 11:08:37;;;;;;;2.75;1.65;;;15.20;94.40;;;;;;4366908;32;20089;-67
2021/09/04 11:11:19;;;;;;;1.70;1.35;;;15.20;98.60;;;;;;4342415;32;20074;-67
2021/09/04 11:13:52;;;;;;;3.05;1.85;;;15.60;92.50;;;;;;4372687;32;20086;-68
2021/09/04 11:16:40;;;;;;;4.47;1.95;;;15.50;95.80;;;;;;4352769;32;20080;-67
2021/09/04 11:19:12;;;;;;;2.92;1.50;;;15.60;91.50;;;;;;4378049;32;20070;-68
2021/09/04 11:21:54;;;;;;;2.42;1.50;;;15.90;83.70;;;;;;4339857;32;20590;-68
2021/09/04 11:24:43;;;;;;;2.47;1.35;;;15.70;84.20;;;;;;4365587;32;20183;-68
2021/09/04 11:27:14;;;;;;;2.30;1.50;;;15.10;90.00;;;;;;4342323;32;20086;-67
2021/09/04 11:29:49;;;;;;;2.53;1.08;;;14.90;92.70;;;;;;4351993;32;20082;-68
2021/09/04 11:32:17;;;;;;;1.17;0.90;;;14.80;91.90;;;;;;4364424;32;20077;-68
2021/09/04 11:34:46;;;;;;;1.50;1.40;;;15.00;91.80;;;;;;4351537;32;20081;-67
2021/09/04 11:37:25;;;;;;;1.35;1.08;;;15.20;90.70;;;;;;4377452;32;20538;-67
2021/09/04 11:40:06;;;;;;;2.00;1.10;;;15.10;87.20;;;;;;4352296;32;20154;-68
2021/09/04 11:42:38;;;;;;;1.87;0.80;;;15.10;87.50;;;;;;4365557;32;20140;-68
2021/09/04 11:45:17;;;;;;;0.80;0.80;;;14.90;89.60;;;;;;4353194;32;20524;-67
2021/09/04 11:47:45;;;;;;;1.25;1.05;;;15.10;89.90;;;;;;4352614;32;20661;-66
2021/09/04 11:50:20;;;;;;;1.25;0.90;;;15.60;85.00;;;;;;4363227;32;20492;-67
2021/09/04 11:52:46;;;;;;;0.93;0.82;;;15.60;86.00;;;;;;4363866;32;20077;-68
2021/09/04 11:55:26;;;;;;;0.98;0.88;;;15.30;85.10;;;;;;4362603;32;20158;-68
2021/09/04 11:58:01;;;;;;;0.82;0.77;;;15.70;80.10;;;;;;4328379;32;20205;-64
2021/09/04 12:00:33;;;;;;;0.80;0.80;;;15.60;76.00;;;;;;4338777;32;20150;-66
2021/09/04 12:03:13;;;;;;;1.40;0.90;;;15.30;79.30;;;;;;4339207;32;20432;-64
2021/09/04 12:05:42;;;;;;;0.85;0.85;;;15.20;76.80;;;;;;4340548;32;20101;-63
2021/09/04 12:08:16;;;;;;;1.90;0.80;;;15.40;75.40;;;;;;4325544;32;20100;-64
2021/09/04 12:10:45;;;;;;;1.02;0.73;;;16.30;72.10;;;;;;4336174;32;20536;-64
2021/09/04 12:13:12;;;;;;;0.73;0.50;;;16.40;69.70;;;;;;4303719;32;20561;-64
2021/09/04 12:15:39;;;;;;;1.23;0.90;;;16.40;69.40;;;;;;4360392;32;20112;-64
2021/09/04 12:18:06;;;;;;;1.75;0.80;;;15.40;69.30;;;;;;4324103;32;20091;-65
2021/09/04 12:20:46;;;;;;;1.27;0.85;;;15.10;72.70;;;;;;4324237;32;20175;-66
2021/09/04 12:23:25;;;;;;;0.77;0.77;;;15.20;75.90;;;;;;4336991;32;20078;-65
2021/09/04 12:26:07;;;;;;;2.45;0.70;;;15.20;76.20;;;;;;4336461;32;20074;-65
2021/09/04 12:28:33;;;;;;;0.50;0.50;;;15.20;75.30;;;;;;4348252;32;20075;-65
2021/09/04 12:31:06;;;;;;;2.58;1.02;;;15.90;71.30;;;;;;4357118;32;20158;-66
2021/09/04 12:33:50;;;;;;;0.77;0.65;;;15.20;70.70;;;;;;4335352;32;20143;-66
2021/09/04 12:36:26;;;;;;;0.75;0.75;;;15.00;69.00;;;;;;4359937;32;20066;-67
2021/09/04 12:38:54;;;;;;;0.90;0.70;;;14.90;69.10;;;;;;4336969;32;20086;-66
2021/09/04 12:41:24;;;;;;;3.45;1.00;;;15.50;67.20;;;;;;4347871;32;20074;-65
2021/09/04 12:43:57;;;;;;;1.87;1.10;;;15.10;61.10;;;;;;4332823;32;20096;-65
2021/09/04 12:46:35;;;;;;;0.73;0.73;;;15.30;62.10;;;;;;4343024;32;20106;-67
2021/09/04 12:49:25;;;;;;;1.05;0.90;;;14.90;59.30;;;;;;4363665;32;20075;-64
2021/09/04 12:52:14;;;;;;;1.35;0.77;;;14.70;60.30;;;;;;4357866;32;20155;-65
2021/09/04 12:54:45;;;;;;;1.05;0.82;;;14.80;62.10;;;;;;4346119;32;20081;-65